sensor_id;sensor_type;location;lat;lon;timestamp;P1;durP1;ratioP1;P2;durP2;ratioP2
84246;SDS011;74385;53.360;6.290;2024-02-21T00:01:03;19.30;;;2.72;;
84246;SDS011;74385;53.360;6.290;2024-02-21T00:03:30;7.97;;;1.95;;
84246;SDS011;74385;53.360;6.290;2024-02-21T00:05:56;3.70;;;1.58;;
84246;SDS011;74385;53.360;6.290;2024-02-21T00:08:22;7.65;;;1.90;;
84246;SDS011;74385;53.360;6.290;2024-02-21T00:10:48;13.00;;;2.40;;
84246;SDS011;74385;53.360;6.290;2024-02-21T00:13:14;5.80;;;1.52;;
84246;SDS011;74385;53.360;6.290;2024-02-21T00:15:40;6.32;;;2.35;;
84246;SDS011;74385;53.360;6.290;2024-02-21T00:18:06;6.70;;;2.70;;
84246;SDS011;74385;53.360;6.290;2024-02-21T00:20:32;6.65;;;2.22;;
84246;SDS011;74385;53.360;6.290;2024-02-21T00:22:58;10.13;;;1.70;;
84246;SDS011;74385;53.360;6.290;2024-02-21T00:25:25;8.10;;;1.90;;
84246;SDS011;74385;53.360;6.290;2024-02-21T00:27:51;7.90;;;1.70;;
84246;SDS011;74385;53.360;6.290;2024-02-21T00:30:18;7.72;;;2.53;;
84246;SDS011;74385;53.360;6.290;2024-02-21T00:32:44;5.57;;;2.28;;
84246;SDS011;74385;53.360;6.290;2024-02-21T00:35:10;5.50;;;1.70;;
84246;SDS011;74385;53.360;6.290;2024-02-21T00:37:37;4.80;;;2.78;;
84246;SDS011;74385;53.360;6.290;2024-02-21T00:40:03;8.93;;;2.30;;
84246;SDS011;74385;53.360;6.290;2024-02-21T00:42:30;12.13;;;2.30;;
84246;SDS011;74385;53.360;6.290;2024-02-21T00:44:56;11.40;;;2.75;;
84246;SDS011;74385;53.360;6.290;2024-02-21T00:47:22;8.40;;;2.28;;
84246;SDS011;74385;53.360;6.290;2024-02-21T00:49:48;8.07;;;2.40;;
84246;SDS011;74385;53.360;6.290;2024-02-21T00:52:14;8.20;;;2.00;;
84246;SDS011;74385;53.360;6.290;2024-02-21T00:54:40;7.45;;;2.28;;
84246;SDS011;74385;53.360;6.290;2024-02-21T00:57:06;9.05;;;2.47;;
84246;SDS011;74385;53.360;6.290;2024-02-21T00:59:32;9.48;;;1.92;;
84246;SDS011;74385;53.360;6.290;2024-02-21T01:01:58;8.40;;;2.30;;
84246;SDS011;74385;53.360;6.290;2024-02-21T01:04:24;6.63;;;1.40;;
84246;SDS011;74385;53.360;6.290;2024-02-21T01:06:50;7.47;;;2.42;;
84246;SDS011;74385;53.360;6.290;2024-02-21T01:09:16;10.63;;;2.85;;
84246;SDS011;74385;53.360;6.290;2024-02-21T01:11:42;9.23;;;2.80;;
84246;SDS011;74385;53.360;6.290;2024-02-21T01:14:09;7.53;;;2.10;;
84246;SDS011;74385;53.360;6.290;2024-02-21T01:16:36;12.45;;;3.35;;
84246;SDS011;74385;53.360;6.290;2024-02-21T01:19:02;8.07;;;2.45;;
84246;SDS011;74385;53.360;6.290;2024-02-21T01:21:28;13.70;;;3.22;;
84246;SDS011;74385;53.360;6.290;2024-02-21T01:23:54;12.60;;;2.42;;
84246;SDS011;74385;53.360;6.290;2024-02-21T01:26:20;8.27;;;1.92;;
84246;SDS011;74385;53.360;6.290;2024-02-21T01:28:46;4.80;;;2.17;;
84246;SDS011;74385;53.360;6.290;2024-02-21T01:31:12;9.65;;;3.30;;
84246;SDS011;74385;53.360;6.290;2024-02-21T01:33:40;4.95;;;1.98;;
84246;SDS011;74385;53.360;6.290;2024-02-21T01:36:06;6.25;;;2.30;;
84246;SDS011;74385;53.360;6.290;2024-02-21T01:38:32;4.10;;;1.50;;
84246;SDS011;74385;53.360;6.290;2024-02-21T01:40:58;4.50;;;2.35;;
84246;SDS011;74385;53.360;6.290;2024-02-21T01:43:24;9.32;;;2.70;;
84246;SDS011;74385;53.360;6.290;2024-02-21T01:45:54;5.32;;;1.52;;
84246;SDS011;74385;53.360;6.290;2024-02-21T01:48:24;7.22;;;2.33;;
84246;SDS011;74385;53.360;6.290;2024-02-21T01:50:50;6.97;;;2.58;;
84246;SDS011;74385;53.360;6.290;2024-02-21T01:53:18;7.32;;;3.17;;
84246;SDS011;74385;53.360;6.290;2024-02-21T01:55:45;4.07;;;1.63;;
84246;SDS011;74385;53.360;6.290;2024-02-21T01:58:13;6.63;;;2.17;;
84246;SDS011;74385;53.360;6.290;2024-02-21T02:00:40;13.98;;;3.78;;
84246;SDS011;74385;53.360;6.290;2024-02-21T02:03:08;7.85;;;2.95;;
84246;SDS011;74385;53.360;6.290;2024-02-21T02:05:35;8.32;;;2.78;;
84246;SDS011;74385;53.360;6.290;2024-02-21T02:08:01;9.00;;;3.05;;
84246;SDS011;74385;53.360;6.290;2024-02-21T02:10:27;10.68;;;3.72;;
84246;SDS011;74385;53.360;6.290;2024-02-21T02:12:53;10.05;;;2.95;;
84246;SDS011;74385;53.360;6.290;2024-02-21T02:15:20;9.35;;;2.60;;
84246;SDS011;74385;53.360;6.290;2024-02-21T02:17:46;8.35;;;2.30;;
84246;SDS011;74385;53.360;6.290;2024-02-21T02:20:12;10.77;;;3.05;;
84246;SDS011;74385;53.360;6.290;2024-02-21T02:22:38;18.23;;;2.45;;
84246;SDS011;74385;53.360;6.290;2024-02-21T02:25:05;5.13;;;2.33;;
84246;SDS011;74385;53.360;6.290;2024-02-21T02:27:31;3.40;;;2.28;;
84246;SDS011;74385;53.360;6.290;2024-02-21T02:29:57;9.63;;;3.17;;
84246;SDS011;74385;53.360;6.290;2024-02-21T02:32:23;14.35;;;3.60;;
84246;SDS011;74385;53.360;6.290;2024-02-21T02:34:49;10.55;;;2.95;;
84246;SDS011;74385;53.360;6.290;2024-02-21T02:37:15;8.15;;;3.50;;
84246;SDS011;74385;53.360;6.290;2024-02-21T02:39:41;7.45;;;2.17;;
84246;SDS011;74385;53.360;6.290;2024-02-21T02:42:07;9.07;;;2.42;;
84246;SDS011;74385;53.360;6.290;2024-02-21T02:44:33;11.77;;;3.13;;
84246;SDS011;74385;53.360;6.290;2024-02-21T02:47:00;8.05;;;3.28;;
84246;SDS011;74385;53.360;6.290;2024-02-21T02:49:27;14.43;;;3.50;;
84246;SDS011;74385;53.360;6.290;2024-02-21T02:51:53;5.82;;;2.33;;
84246;SDS011;74385;53.360;6.290;2024-02-21T02:54:20;9.55;;;3.35;;
84246;SDS011;74385;53.360;6.290;2024-02-21T02:56:46;8.98;;;2.97;;
84246;SDS011;74385;53.360;6.290;2024-02-21T02:59:12;10.63;;;3.13;;
84246;SDS011;74385;53.360;6.290;2024-02-21T03:01:38;9.25;;;2.75;;
84246;SDS011;74385;53.360;6.290;2024-02-21T03:04:04;6.13;;;2.42;;
84246;SDS011;74385;53.360;6.290;2024-02-21T03:06:30;19.63;;;3.88;;
84246;SDS011;74385;53.360;6.290;2024-02-21T03:08:56;7.65;;;2.50;;
84246;SDS011;74385;53.360;6.290;2024-02-21T03:11:22;8.95;;;2.70;;
84246;SDS011;74385;53.360;6.290;2024-02-21T03:13:55;7.68;;;2.85;;
84246;SDS011;74385;53.360;6.290;2024-02-21T03:16:25;4.05;;;2.00;;
84246;SDS011;74385;53.360;6.290;2024-02-21T03:18:51;6.05;;;1.73;;
84246;SDS011;74385;53.360;6.290;2024-02-21T03:21:17;10.15;;;2.55;;
84246;SDS011;74385;53.360;6.290;2024-02-21T03:23:43;12.88;;;2.85;;
84246;SDS011;74385;53.360;6.290;2024-02-21T03:26:10;15.55;;;4.13;;
84246;SDS011;74385;53.360;6.290;2024-02-21T03:28:36;9.15;;;1.42;;
84246;SDS011;74385;53.360;6.290;2024-02-21T03:31:04;7.07;;;2.85;;
84246;SDS011;74385;53.360;6.290;2024-02-21T03:33:30;3.35;;;1.63;;
84246;SDS011;74385;53.360;6.290;2024-02-21T03:35:56;6.40;;;2.13;;
84246;SDS011;74385;53.360;6.290;2024-02-21T03:38:22;14.48;;;3.25;;
84246;SDS011;74385;53.360;6.290;2024-02-21T03:40:50;9.30;;;3.55;;
84246;SDS011;74385;53.360;6.290;2024-02-21T03:43:16;11.13;;;2.85;;
84246;SDS011;74385;53.360;6.290;2024-02-21T03:45:42;11.85;;;3.15;;
84246;SDS011;74385;53.360;6.290;2024-02-21T03:48:08;7.30;;;2.30;;
84246;SDS011;74385;53.360;6.290;2024-02-21T03:50:34;7.80;;;2.28;;
84246;SDS011;74385;53.360;6.290;2024-02-21T03:53:01;14.05;;;3.47;;
84246;SDS011;74385;53.360;6.290;2024-02-21T03:55:27;12.73;;;3.22;;
84246;SDS011;74385;53.360;6.290;2024-02-21T03:57:53;14.90;;;3.33;;
84246;SDS011;74385;53.360;6.290;2024-02-21T04:00:19;9.35;;;2.30;;
84246;SDS011;74385;53.360;6.290;2024-02-21T04:02:45;12.35;;;3.17;;
84246;SDS011;74385;53.360;6.290;2024-02-21T04:05:11;12.75;;;2.92;;
84246;SDS011;74385;53.360;6.290;2024-02-21T04:07:37;14.32;;;3.28;;
84246;SDS011;74385;53.360;6.290;2024-02-21T04:10:04;8.93;;;2.67;;
84246;SDS011;74385;53.360;6.290;2024-02-21T04:12:30;19.80;;;3.95;;
84246;SDS011;74385;53.360;6.290;2024-02-21T04:14:56;9.05;;;3.30;;
84246;SDS011;74385;53.360;6.290;2024-02-21T04:17:23;9.95;;;2.95;;
84246;SDS011;74385;53.360;6.290;2024-02-21T04:19:49;13.27;;;3.10;;
84246;SDS011;74385;53.360;6.290;2024-02-21T04:22:15;15.80;;;2.92;;
84246;SDS011;74385;53.360;6.290;2024-02-21T04:24:41;6.75;;;1.90;;
84246;SDS011;74385;53.360;6.290;2024-02-21T04:27:07;10.98;;;3.72;;
84246;SDS011;74385;53.360;6.290;2024-02-21T04:29:33;8.27;;;2.28;;
84246;SDS011;74385;53.360;6.290;2024-02-21T04:32:01;12.77;;;3.00;;
84246;SDS011;74385;53.360;6.290;2024-02-21T04:34:27;14.25;;;2.47;;
84246;SDS011;74385;53.360;6.290;2024-02-21T04:36:53;8.98;;;2.97;;
84246;SDS011;74385;53.360;6.290;2024-02-21T04:39:19;12.27;;;3.20;;
84246;SDS011;74385;53.360;6.290;2024-02-21T04:41:45;9.90;;;3.03;;
84246;SDS011;74385;53.360;6.290;2024-02-21T04:44:11;6.65;;;2.33;;
84246;SDS011;74385;53.360;6.290;2024-02-21T04:46:37;9.20;;;2.88;;
84246;SDS011;74385;53.360;6.290;2024-02-21T04:49:03;6.25;;;1.92;;
84246;SDS011;74385;53.360;6.290;2024-02-21T04:51:29;10.20;;;2.42;;
84246;SDS011;74385;53.360;6.290;2024-02-21T04:53:56;12.15;;;2.78;;
84246;SDS011;74385;53.360;6.290;2024-02-21T04:56:22;7.70;;;2.42;;
84246;SDS011;74385;53.360;6.290;2024-02-21T04:58:48;4.10;;;1.60;;
84246;SDS011;74385;53.360;6.290;2024-02-21T05:01:14;10.77;;;3.38;;
84246;SDS011;74385;53.360;6.290;2024-02-21T05:03:40;13.27;;;3.38;;
84246;SDS011;74385;53.360;6.290;2024-02-21T05:06:06;14.45;;;2.92;;
84246;SDS011;74385;53.360;6.290;2024-02-21T05:08:32;8.35;;;2.30;;
84246;SDS011;74385;53.360;6.290;2024-02-21T05:10:58;9.07;;;1.83;;
84246;SDS011;74385;53.360;6.290;2024-02-21T05:13:24;11.52;;;2.50;;
84246;SDS011;74385;53.360;6.290;2024-02-21T05:15:50;12.88;;;3.05;;
84246;SDS011;74385;53.360;6.290;2024-02-21T05:18:16;5.85;;;2.22;;
84246;SDS011;74385;53.360;6.290;2024-02-21T05:20:43;11.80;;;2.75;;
84246;SDS011;74385;53.360;6.290;2024-02-21T05:23:09;17.13;;;3.05;;
84246;SDS011;74385;53.360;6.290;2024-02-21T05:25:35;11.75;;;2.80;;
84246;SDS011;74385;53.360;6.290;2024-02-21T05:28:01;8.63;;;2.97;;
84246;SDS011;74385;53.360;6.290;2024-02-21T05:30:29;12.20;;;3.25;;
84246;SDS011;74385;53.360;6.290;2024-02-21T05:32:55;14.10;;;2.75;;
84246;SDS011;74385;53.360;6.290;2024-02-21T05:35:24;14.40;;;2.72;;
84246;SDS011;74385;53.360;6.290;2024-02-21T05:37:51;15.50;;;2.15;;
84246;SDS011;74385;53.360;6.290;2024-02-21T05:40:17;10.35;;;2.92;;
84246;SDS011;74385;53.360;6.290;2024-02-21T05:42:43;12.63;;;2.50;;
84246;SDS011;74385;53.360;6.290;2024-02-21T05:45:09;10.80;;;2.75;;
84246;SDS011;74385;53.360;6.290;2024-02-21T05:47:36;10.00;;;2.47;;
84246;SDS011;74385;53.360;6.290;2024-02-21T05:50:02;16.85;;;3.05;;
84246;SDS011;74385;53.360;6.290;2024-02-21T05:52:28;13.80;;;3.95;;
84246;SDS011;74385;53.360;6.290;2024-02-21T05:54:54;13.50;;;3.35;;
84246;SDS011;74385;53.360;6.290;2024-02-21T05:57:20;10.85;;;3.38;;
84246;SDS011;74385;53.360;6.290;2024-02-21T05:59:46;14.52;;;3.97;;
84246;SDS011;74385;53.360;6.290;2024-02-21T06:02:12;18.67;;;3.65;;
84246;SDS011;74385;53.360;6.290;2024-02-21T06:04:38;9.75;;;3.63;;
84246;SDS011;74385;53.360;6.290;2024-02-21T06:07:04;12.13;;;3.72;;
84246;SDS011;74385;53.360;6.290;2024-02-21T06:09:30;14.32;;;3.95;;
84246;SDS011;74385;53.360;6.290;2024-02-21T06:11:57;14.40;;;3.33;;
84246;SDS011;74385;53.360;6.290;2024-02-21T06:14:23;14.13;;;4.50;;
84246;SDS011;74385;53.360;6.290;2024-02-21T06:16:49;15.68;;;4.18;;
84246;SDS011;74385;53.360;6.290;2024-02-21T06:19:15;11.65;;;3.28;;
84246;SDS011;74385;53.360;6.290;2024-02-21T06:21:41;13.32;;;4.35;;
84246;SDS011;74385;53.360;6.290;2024-02-21T06:24:07;16.08;;;4.15;;
84246;SDS011;74385;53.360;6.290;2024-02-21T06:26:33;16.67;;;3.53;;
84246;SDS011;74385;53.360;6.290;2024-02-21T06:28:59;13.38;;;4.82;;
84246;SDS011;74385;53.360;6.290;2024-02-21T06:31:27;12.75;;;4.18;;
84246;SDS011;74385;53.360;6.290;2024-02-21T06:33:53;20.15;;;3.58;;
84246;SDS011;74385;53.360;6.290;2024-02-21T06:36:19;10.57;;;3.60;;
84246;SDS011;74385;53.360;6.290;2024-02-21T06:38:45;11.82;;;4.57;;
84246;SDS011;74385;53.360;6.290;2024-02-21T06:41:17;18.08;;;3.55;;
84246;SDS011;74385;53.360;6.290;2024-02-21T06:43:45;17.23;;;4.25;;
84246;SDS011;74385;53.360;6.290;2024-02-21T06:46:11;19.00;;;4.43;;
84246;SDS011;74385;53.360;6.290;2024-02-21T06:48:37;15.45;;;4.28;;
84246;SDS011;74385;53.360;6.290;2024-02-21T06:51:03;10.02;;;3.60;;
84246;SDS011;74385;53.360;6.290;2024-02-21T06:53:30;16.02;;;4.57;;
84246;SDS011;74385;53.360;6.290;2024-02-21T06:55:56;20.63;;;4.93;;
84246;SDS011;74385;53.360;6.290;2024-02-21T06:58:23;11.75;;;3.72;;
84246;SDS011;74385;53.360;6.290;2024-02-21T07:00:49;12.75;;;4.65;;
84246;SDS011;74385;53.360;6.290;2024-02-21T07:03:15;17.65;;;4.70;;
84246;SDS011;74385;53.360;6.290;2024-02-21T07:05:41;16.67;;;4.40;;
84246;SDS011;74385;53.360;6.290;2024-02-21T07:08:07;12.10;;;4.20;;
84246;SDS011;74385;53.360;6.290;2024-02-21T07:10:33;11.07;;;3.00;;
84246;SDS011;74385;53.360;6.290;2024-02-21T07:12:59;14.93;;;4.57;;
84246;SDS011;74385;53.360;6.290;2024-02-21T07:15:26;24.92;;;4.57;;
84246;SDS011;74385;53.360;6.290;2024-02-21T07:17:53;13.13;;;3.80;;
84246;SDS011;74385;53.360;6.290;2024-02-21T07:20:19;8.00;;;3.17;;
84246;SDS011;74385;53.360;6.290;2024-02-21T07:22:45;11.27;;;3.80;;
84246;SDS011;74385;53.360;6.290;2024-02-21T07:25:11;23.30;;;4.97;;
84246;SDS011;74385;53.360;6.290;2024-02-21T07:27:37;22.02;;;6.15;;
84246;SDS011;74385;53.360;6.290;2024-02-21T07:30:05;12.85;;;3.58;;
84246;SDS011;74385;53.360;6.290;2024-02-21T07:32:31;14.82;;;3.97;;
84246;SDS011;74385;53.360;6.290;2024-02-21T07:34:57;18.05;;;4.90;;
84246;SDS011;74385;53.360;6.290;2024-02-21T07:37:23;14.68;;;4.80;;
84246;SDS011;74385;53.360;6.290;2024-02-21T07:39:49;16.63;;;5.00;;
84246;SDS011;74385;53.360;6.290;2024-02-21T07:42:16;15.00;;;4.35;;
84246;SDS011;74385;53.360;6.290;2024-02-21T07:44:42;17.67;;;5.32;;
84246;SDS011;74385;53.360;6.290;2024-02-21T07:47:08;24.02;;;5.68;;
84246;SDS011;74385;53.360;6.290;2024-02-21T07:49:44;24.42;;;5.68;;
84246;SDS011;74385;53.360;6.290;2024-02-21T07:52:11;18.55;;;6.57;;
84246;SDS011;74385;53.360;6.290;2024-02-21T07:54:37;26.90;;;6.30;;
84246;SDS011;74385;53.360;6.290;2024-02-21T07:57:03;22.83;;;6.80;;
84246;SDS011;74385;53.360;6.290;2024-02-21T07:59:29;28.80;;;8.05;;
84246;SDS011;74385;53.360;6.290;2024-02-21T08:01:57;21.88;;;6.15;;
84246;SDS011;74385;53.360;6.290;2024-02-21T08:04:23;24.42;;;6.82;;
84246;SDS011;74385;53.360;6.290;2024-02-21T08:06:55;21.15;;;8.20;;
84246;SDS011;74385;53.360;6.290;2024-02-21T08:09:24;21.45;;;8.02;;
84246;SDS011;74385;53.360;6.290;2024-02-21T08:11:50;25.33;;;9.13;;
84246;SDS011;74385;53.360;6.290;2024-02-21T08:14:16;20.30;;;7.93;;
84246;SDS011;74385;53.360;6.290;2024-02-21T08:16:43;24.83;;;8.25;;
84246;SDS011;74385;53.360;6.290;2024-02-21T08:19:09;19.25;;;8.00;;
84246;SDS011;74385;53.360;6.290;2024-02-21T08:21:35;26.40;;;8.50;;
84246;SDS011;74385;53.360;6.290;2024-02-21T08:24:01;25.15;;;9.00;;
84246;SDS011;74385;53.360;6.290;2024-02-21T08:26:27;31.45;;;10.35;;
84246;SDS011;74385;53.360;6.290;2024-02-21T08:28:55;26.27;;;8.70;;
84246;SDS011;74385;53.360;6.290;2024-02-21T08:31:24;18.95;;;7.30;;
84246;SDS011;74385;53.360;6.290;2024-02-21T08:33:56;18.67;;;5.60;;
84246;SDS011;74385;53.360;6.290;2024-02-21T08:36:27;20.30;;;6.95;;
84246;SDS011;74385;53.360;6.290;2024-02-21T08:38:54;27.52;;;6.93;;
84246;SDS011;74385;53.360;6.290;2024-02-21T08:41:20;18.67;;;6.25;;
84246;SDS011;74385;53.360;6.290;2024-02-21T08:43:48;12.55;;;5.22;;
84246;SDS011;74385;53.360;6.290;2024-02-21T08:46:14;14.57;;;5.35;;
84246;SDS011;74385;53.360;6.290;2024-02-21T08:48:40;19.02;;;6.28;;
84246;SDS011;74385;53.360;6.290;2024-02-21T08:51:07;13.15;;;5.63;;
84246;SDS011;74385;53.360;6.290;2024-02-21T08:53:33;11.52;;;5.10;;
84246;SDS011;74385;53.360;6.290;2024-02-21T08:55:59;9.63;;;3.90;;
84246;SDS011;74385;53.360;6.290;2024-02-21T08:58:25;15.38;;;4.85;;
84246;SDS011;74385;53.360;6.290;2024-02-21T09:00:51;10.30;;;3.97;;
84246;SDS011;74385;53.360;6.290;2024-02-21T09:03:17;15.88;;;4.60;;
84246;SDS011;74385;53.360;6.290;2024-02-21T09:05:45;11.85;;;4.65;;
84246;SDS011;74385;53.360;6.290;2024-02-21T09:08:11;10.13;;;4.32;;
84246;SDS011;74385;53.360;6.290;2024-02-21T09:10:39;7.40;;;4.22;;
84246;SDS011;74385;53.360;6.290;2024-02-21T09:13:05;15.45;;;5.00;;
84246;SDS011;74385;53.360;6.290;2024-02-21T09:15:33;9.73;;;4.75;;
84246;SDS011;74385;53.360;6.290;2024-02-21T09:17:59;15.98;;;5.47;;
84246;SDS011;74385;53.360;6.290;2024-02-21T09:20:25;12.65;;;5.82;;
84246;SDS011;74385;53.360;6.290;2024-02-21T09:22:51;13.63;;;5.78;;
84246;SDS011;74385;53.360;6.290;2024-02-21T09:25:18;13.00;;;6.88;;
84246;SDS011;74385;53.360;6.290;2024-02-21T09:27:44;17.10;;;8.10;;
84246;SDS011;74385;53.360;6.290;2024-02-21T09:30:10;11.48;;;7.63;;
84246;SDS011;74385;53.360;6.290;2024-02-21T09:32:37;13.40;;;7.38;;
84246;SDS011;74385;53.360;6.290;2024-02-21T09:35:04;16.52;;;8.60;;
84246;SDS011;74385;53.360;6.290;2024-02-21T09:37:30;14.20;;;8.32;;
84246;SDS011;74385;53.360;6.290;2024-02-21T09:39:57;18.85;;;10.35;;
84246;SDS011;74385;53.360;6.290;2024-02-21T09:42:24;18.88;;;9.88;;
84246;SDS011;74385;53.360;6.290;2024-02-21T09:44:55;16.92;;;9.43;;
84246;SDS011;74385;53.360;6.290;2024-02-21T09:47:22;19.27;;;10.48;;
84246;SDS011;74385;53.360;6.290;2024-02-21T09:52:17;12.25;;;7.75;;
84246;SDS011;74385;53.360;6.290;2024-02-21T09:54:44;14.13;;;8.60;;
84246;SDS011;74385;53.360;6.290;2024-02-21T09:57:10;22.65;;;11.02;;
84246;SDS011;74385;53.360;6.290;2024-02-21T09:59:37;20.70;;;10.40;;
84246;SDS011;74385;53.360;6.290;2024-02-21T10:02:03;16.20;;;10.23;;
84246;SDS011;74385;53.360;6.290;2024-02-21T10:04:30;21.58;;;12.00;;
84246;SDS011;74385;53.360;6.290;2024-02-21T10:06:57;21.75;;;11.32;;
84246;SDS011;74385;53.360;6.290;2024-02-21T10:09:23;22.65;;;10.82;;
84246;SDS011;74385;53.360;6.290;2024-02-21T10:11:52;20.98;;;11.00;;
84246;SDS011;74385;53.360;6.290;2024-02-21T10:14:18;21.15;;;10.77;;
84246;SDS011;74385;53.360;6.290;2024-02-21T10:16:48;20.83;;;10.15;;
84246;SDS011;74385;53.360;6.290;2024-02-21T10:19:18;20.67;;;10.80;;
84246;SDS011;74385;53.360;6.290;2024-02-21T10:21:57;18.58;;;10.38;;
84246;SDS011;74385;53.360;6.290;2024-02-21T10:24:30;19.73;;;9.15;;
84246;SDS011;74385;53.360;6.290;2024-02-21T10:27:06;16.70;;;9.55;;
84246;SDS011;74385;53.360;6.290;2024-02-21T10:29:37;19.33;;;9.98;;
84246;SDS011;74385;53.360;6.290;2024-02-21T10:32:06;17.13;;;9.05;;
84246;SDS011;74385;53.360;6.290;2024-02-21T10:34:34;17.05;;;9.90;;
84246;SDS011;74385;53.360;6.290;2024-02-21T10:37:04;15.75;;;8.93;;
84246;SDS011;74385;53.360;6.290;2024-02-21T10:39:34;13.13;;;8.13;;
84246;SDS011;74385;53.360;6.290;2024-02-21T10:42:06;14.35;;;8.32;;
84246;SDS011;74385;53.360;6.290;2024-02-21T10:44:35;10.45;;;7.68;;
84246;SDS011;74385;53.360;6.290;2024-02-21T10:47:09;13.90;;;8.70;;
84246;SDS011;74385;53.360;6.290;2024-02-21T10:49:38;16.38;;;8.75;;
84246;SDS011;74385;53.360;6.290;2024-02-21T10:56:57;15.63;;;7.15;;
84246;SDS011;74385;53.360;6.290;2024-02-21T10:59:24;14.52;;;8.90;;
84246;SDS011;74385;53.360;6.290;2024-02-21T11:01:51;13.55;;;9.23;;
84246;SDS011;74385;53.360;6.290;2024-02-21T11:04:17;16.48;;;8.02;;
84246;SDS011;74385;53.360;6.290;2024-02-21T11:06:44;17.13;;;9.05;;
84246;SDS011;74385;53.360;6.290;2024-02-21T11:09:10;8.88;;;6.45;;
84246;SDS011;74385;53.360;6.290;2024-02-21T11:11:39;13.05;;;8.15;;
84246;SDS011;74385;53.360;6.290;2024-02-21T11:14:18;20.13;;;8.63;;
84246;SDS011;74385;53.360;6.290;2024-02-21T11:16:45;14.15;;;8.52;;
84246;SDS011;74385;53.360;6.290;2024-02-21T11:19:21;15.50;;;8.63;;
84246;SDS011;74385;53.360;6.290;2024-02-21T11:21:48;14.18;;;8.63;;
84246;SDS011;74385;53.360;6.290;2024-02-21T11:24:25;21.42;;;9.35;;
84246;SDS011;74385;53.360;6.290;2024-02-21T11:26:52;14.52;;;8.55;;
84246;SDS011;74385;53.360;6.290;2024-02-21T11:29:22;12.13;;;7.15;;
84246;SDS011;74385;53.360;6.290;2024-02-21T11:31:49;11.23;;;8.25;;
84246;SDS011;74385;53.360;6.290;2024-02-21T11:34:17;17.60;;;9.77;;
84246;SDS011;74385;53.360;6.290;2024-02-21T11:36:50;14.98;;;9.60;;
84246;SDS011;74385;53.360;6.290;2024-02-21T11:39:20;13.80;;;8.10;;
84246;SDS011;74385;53.360;6.290;2024-02-21T11:41:47;17.20;;;9.13;;
84246;SDS011;74385;53.360;6.290;2024-02-21T11:44:13;13.32;;;7.47;;
84246;SDS011;74385;53.360;6.290;2024-02-21T11:46:40;15.82;;;8.68;;
84246;SDS011;74385;53.360;6.290;2024-02-21T11:49:06;17.88;;;9.65;;
84246;SDS011;74385;53.360;6.290;2024-02-21T11:51:32;17.00;;;8.68;;
84246;SDS011;74385;53.360;6.290;2024-02-21T11:53:58;16.75;;;9.50;;
84246;SDS011;74385;53.360;6.290;2024-02-21T11:56:25;16.40;;;9.27;;
84246;SDS011;74385;53.360;6.290;2024-02-21T11:58:51;13.38;;;8.55;;
84246;SDS011;74385;53.360;6.290;2024-02-21T12:01:17;13.32;;;8.27;;
84246;SDS011;74385;53.360;6.290;2024-02-21T12:03:43;16.05;;;7.32;;
84246;SDS011;74385;53.360;6.290;2024-02-21T12:06:15;14.13;;;8.70;;
84246;SDS011;74385;53.360;6.290;2024-02-21T12:08:44;15.77;;;8.23;;
84246;SDS011;74385;53.360;6.290;2024-02-21T12:11:18;11.60;;;8.05;;
84246;SDS011;74385;53.360;6.290;2024-02-21T12:13:44;12.65;;;7.90;;
84246;SDS011;74385;53.360;6.290;2024-02-21T12:16:11;10.43;;;7.60;;
84246;SDS011;74385;53.360;6.290;2024-02-21T12:18:37;13.98;;;9.75;;
84246;SDS011;74385;53.360;6.290;2024-02-21T12:21:04;12.93;;;8.00;;
84246;SDS011;74385;53.360;6.290;2024-02-21T12:23:30;12.98;;;8.27;;
84246;SDS011;74385;53.360;6.290;2024-02-21T12:25:58;16.05;;;8.70;;
84246;SDS011;74385;53.360;6.290;2024-02-21T12:28:24;12.77;;;7.55;;
84246;SDS011;74385;53.360;6.290;2024-02-21T12:30:51;14.70;;;8.68;;
84246;SDS011;74385;53.360;6.290;2024-02-21T12:33:17;10.95;;;7.65;;
84246;SDS011;74385;53.360;6.290;2024-02-21T12:35:43;13.88;;;8.23;;
84246;SDS011;74385;53.360;6.290;2024-02-21T12:38:10;15.35;;;8.57;;
84246;SDS011;74385;53.360;6.290;2024-02-21T12:40:38;14.15;;;8.20;;
84246;SDS011;74385;53.360;6.290;2024-02-21T12:43:04;13.63;;;7.30;;
84246;SDS011;74385;53.360;6.290;2024-02-21T12:45:30;15.00;;;8.52;;
84246;SDS011;74385;53.360;6.290;2024-02-21T12:47:56;10.38;;;7.25;;
84246;SDS011;74385;53.360;6.290;2024-02-21T12:50:23;12.57;;;6.30;;
84246;SDS011;74385;53.360;6.290;2024-02-21T12:52:49;11.60;;;6.78;;
84246;SDS011;74385;53.360;6.290;2024-02-21T12:55:15;8.30;;;6.85;;
84246;SDS011;74385;53.360;6.290;2024-02-21T12:57:41;12.15;;;6.72;;
84246;SDS011;74385;53.360;6.290;2024-02-21T13:00:08;10.70;;;6.00;;
84246;SDS011;74385;53.360;6.290;2024-02-21T13:02:34;10.63;;;6.13;;
84246;SDS011;74385;53.360;6.290;2024-02-21T13:05:00;11.10;;;6.55;;
84246;SDS011;74385;53.360;6.290;2024-02-21T13:07:28;10.50;;;5.53;;
84246;SDS011;74385;53.360;6.290;2024-02-21T13:09:54;11.05;;;5.40;;
84246;SDS011;74385;53.360;6.290;2024-02-21T13:12:20;13.25;;;6.32;;
84246;SDS011;74385;53.360;6.290;2024-02-21T13:14:46;8.73;;;5.78;;
84246;SDS011;74385;53.360;6.290;2024-02-21T13:17:12;9.65;;;5.28;;
84246;SDS011;74385;53.360;6.290;2024-02-21T13:19:40;8.13;;;5.53;;
84246;SDS011;74385;53.360;6.290;2024-02-21T13:22:06;7.55;;;5.32;;
84246;SDS011;74385;53.360;6.290;2024-02-21T13:24:32;9.02;;;5.22;;
84246;SDS011;74385;53.360;6.290;2024-02-21T13:26:58;6.32;;;3.92;;
84246;SDS011;74385;53.360;6.290;2024-02-21T13:29:24;9.82;;;5.38;;
84246;SDS011;74385;53.360;6.290;2024-02-21T13:31:50;7.55;;;4.85;;
84246;SDS011;74385;53.360;6.290;2024-02-21T13:34:16;6.80;;;4.95;;
84246;SDS011;74385;53.360;6.290;2024-02-21T13:36:42;8.18;;;4.95;;
84246;SDS011;74385;53.360;6.290;2024-02-21T13:39:08;5.10;;;4.47;;
84246;SDS011;74385;53.360;6.290;2024-02-21T13:41:38;6.93;;;4.22;;
84246;SDS011;74385;53.360;6.290;2024-02-21T13:44:04;6.57;;;3.53;;
84246;SDS011;74385;53.360;6.290;2024-02-21T13:46:30;5.78;;;3.42;;
84246;SDS011;74385;53.360;6.290;2024-02-21T13:49:02;5.00;;;2.92;;
84246;SDS011;74385;53.360;6.290;2024-02-21T13:51:32;6.55;;;3.90;;
84246;SDS011;74385;53.360;6.290;2024-02-21T13:54:01;6.35;;;4.60;;
84246;SDS011;74385;53.360;6.290;2024-02-21T13:56:27;7.22;;;3.90;;
84246;SDS011;74385;53.360;6.290;2024-02-21T13:58:54;6.30;;;4.55;;
84246;SDS011;74385;53.360;6.290;2024-02-21T14:01:20;5.82;;;4.45;;
84246;SDS011;74385;53.360;6.290;2024-02-21T14:03:46;6.88;;;4.43;;
84246;SDS011;74385;53.360;6.290;2024-02-21T14:06:12;8.57;;;4.03;;
84246;SDS011;74385;53.360;6.290;2024-02-21T14:08:38;5.25;;;3.80;;
84246;SDS011;74385;53.360;6.290;2024-02-21T14:11:05;9.18;;;3.78;;
84246;SDS011;74385;53.360;6.290;2024-02-21T14:13:31;7.43;;;3.42;;
84246;SDS011;74385;53.360;6.290;2024-02-21T14:15:57;8.18;;;4.57;;
84246;SDS011;74385;53.360;6.290;2024-02-21T14:18:23;5.47;;;3.70;;
84246;SDS011;74385;53.360;6.290;2024-02-21T14:20:49;7.72;;;3.97;;
84246;SDS011;74385;53.360;6.290;2024-02-21T14:23:16;6.63;;;3.40;;
84246;SDS011;74385;53.360;6.290;2024-02-21T14:25:42;7.60;;;4.18;;
84246;SDS011;74385;53.360;6.290;2024-02-21T14:28:08;6.82;;;4.63;;
84246;SDS011;74385;53.360;6.290;2024-02-21T14:30:36;5.38;;;4.28;;
84246;SDS011;74385;53.360;6.290;2024-02-21T14:33:03;4.75;;;3.28;;
84246;SDS011;74385;53.360;6.290;2024-02-21T14:35:29;7.85;;;4.15;;
84246;SDS011;74385;53.360;6.290;2024-02-21T14:37:55;6.25;;;3.97;;
84246;SDS011;74385;53.360;6.290;2024-02-21T14:40:22;7.85;;;4.65;;
84246;SDS011;74385;53.360;6.290;2024-02-21T14:42:48;5.05;;;3.55;;